Terminal Aerodrome Forecast
Issued by NWS

Home | Current Version | Previous Version | Text Only | Print | Product List | Glossary On
Versions: 1 2 3 4 5 6 7 8 9 10 11 12 13 14 15 16 17 18 19 20 21 22 23 24 25
000
FTUS42 KFFC 300958 AAA
TAFFTY
TAF AMD
KFTY 300958Z 3010/3106 00000KT P6SM FEW040 SCT120
     FM301400 35005KT P6SM FEW040
     FM301700 34007KT P6SM VCSH BKN050
      TEMPO 3018/3021 VRB10G20KT 6SM -TSRA BKN040CB
     FM310000 34004KT P6SM SCT060 SCT250=

USA.gov is the U.S. government's official web portal to all federal, state and local government web resources and services.